KLYH

Lynchburg Regional / Preston Glenn Field Airport

Lynchburg, Virginia, USA
METAR KLYH 170254Z AUTO 00000KT 10SM OVC008 14/13 A3013 RMK AO2 RAB04E46 SLP197 P0000 60000 T01390133 50000
Observed Flight Rules
Oct-17 @ 02:54 UTC (52 minutes ago) Instrument Flight Rules
Visibility Clouds
10 miles
  • Overcast at 800' AGL
Temperatures Readings Precipitation
Current 14°C / 57°F
Dewpoint 13°C / 55°F
Humidity 94%
Altimeter 30.13" Hg
Pressure 1019.7 hPa
Elevation 295
Current Rain 0.005
METAR KLYH 170254Z AUTO 00000KT 10SM OVC008 14/13 A3013 RMK AO2 RAB04E46 SLP197 P0000 60000 T01390133 50000
Observed Flight Rules
Oct-17 @ 02:54 UTC
(52 minutes ago)
IFR
Clouds
  • Overcast at 800' AGL
Temperature Dewpoint
14°C / 57°F 13°C / 55°F
Humidity Altimeter Pressure
94% 30.13" Hg 1019.7 hPa
Current Rain
0.005